Time;durP1;ratioP1;P1;durP2;ratioP2;P2;SDS_P1;SDS_P2;PMS_P1;PMS_P2;Temp;Humidity;BMP_temperature;BMP_pressure;BME280_temperature;BME280_humidity;BME280_pressure;Samples;Min_cycle;Max_cycle;Signal;HPM_P1;HPM_P2
2022/06/25 00:01:32;;;;;;;2.43;2.23;;;-40.00;99.90;;;;;;5137708;27;20225;-73
2022/06/25 00:03:58;;;;;;;3.87;2.40;;;-40.00;99.90;;;;;;5140030;27;20176;-71
2022/06/25 00:06:24;;;;;;;2.30;2.10;;;-40.00;99.90;;;;;;5139664;27;20285;-74
2022/06/25 00:08:50;;;;;;;3.83;2.10;;;-40.00;99.90;;;;;;5139836;27;20564;-75
2022/06/25 00:14:10;;;;;;;1.90;1.80;;;-40.00;99.90;;;;;;5140104;27;20194;-68
2022/06/25 00:16:37;;;;;;;12.57;3.93;;;-40.00;99.90;;;;;;5138443;27;20177;-73
2022/06/25 00:19:03;;;;;;;6.00;2.90;;;-40.00;99.90;;;;;;5139578;27;20161;-76
2022/06/25 00:21:29;;;;;;;2.90;2.53;;;-40.00;99.90;;;;;;5139483;27;20600;-73
2022/06/25 00:23:55;;;;;;;18.20;3.07;;;-40.00;99.90;;;;;;5139642;27;20509;-73
2022/06/25 00:26:22;;;;;;;3.37;2.10;;;-40.00;99.90;;;;;;5139054;27;20193;-72
2022/06/25 00:28:47;;;;;;;12.10;3.27;;;-40.00;99.90;;;;;;5139472;27;20173;-77
2022/06/25 00:31:13;;;;;;;3.33;3.13;;;-40.00;99.90;;;;;;5138095;27;20170;-75
2022/06/25 00:33:39;;;;;;;2.50;2.27;;;-40.00;99.90;;;;;;5139399;27;20169;-75
2022/06/25 00:36:05;;;;;;;2.97;2.73;;;-40.00;99.90;;;;;;5139222;27;20245;-69
2022/06/25 00:38:31;;;;;;;2.87;2.60;;;-40.00;99.90;;;;;;5139139;27;20583;-75
2022/06/25 00:40:56;;;;;;;3.03;2.83;;;-40.00;99.90;;;;;;5138989;27;20640;-73
2022/06/25 00:43:22;;;;;;;3.57;2.57;;;-40.00;99.90;;;;;;5139108;27;20169;-76
2022/06/25 00:45:48;;;;;;;5.27;2.83;;;-40.00;99.90;;;;;;5138886;27;20725;-72
2022/06/25 00:48:14;;;;;;;2.97;2.33;;;-40.00;99.90;;;;;;5138768;27;20217;-72
2022/06/25 00:50:39;;;;;;;3.43;2.53;;;-40.00;99.90;;;;;;5138960;27;20173;-69
2022/06/25 00:53:06;;;;;;;4.50;2.40;;;-40.00;99.90;;;;;;5139250;27;20168;-68
2022/06/25 00:55:35;;;;;;;6.67;3.30;;;-40.00;99.90;;;;;;5138642;27;20177;-69
2022/06/25 00:58:01;;;;;;;5.07;2.43;;;-40.00;99.90;;;;;;5137864;27;20196;-69
2022/06/25 01:00:28;;;;;;;2.27;2.10;;;-40.00;99.90;;;;;;5139006;27;20176;-69
2022/06/25 01:02:54;;;;;;;3.43;2.87;;;-40.00;99.90;;;;;;5138840;27;20245;-75
2022/06/25 01:05:20;;;;;;;4.23;3.57;;;-40.00;99.90;;;;;;5138468;27;20288;-70
2022/06/25 01:07:48;;;;;;;3.83;2.70;;;-40.00;99.90;;;;;;5138644;27;20177;-70
2022/06/25 01:10:16;;;;;;;4.17;2.90;;;-40.00;99.90;;;;;;5138398;27;20179;-75
2022/06/25 01:12:43;;;;;;;3.50;2.67;;;-40.00;99.90;;;;;;5138745;27;20181;-75
2022/06/25 01:15:17;;;;;;;8.10;3.17;;;-40.00;99.90;;;;;;5138734;27;20256;-74
2022/06/25 01:17:48;;;;;;;3.07;2.80;;;-40.00;99.90;;;;;;5138381;27;20172;-78
2022/06/25 01:20:15;;;;;;;3.73;2.93;;;-40.00;99.90;;;;;;5137380;27;20170;-73
2022/06/25 01:22:41;;;;;;;5.63;2.50;;;-40.00;99.90;;;;;;5137081;27;20277;-77
2022/06/25 01:25:08;;;;;;;3.80;3.40;;;-40.00;99.90;;;;;;5138390;27;20604;-76
2022/06/25 01:27:34;;;;;;;6.00;3.13;;;-40.00;99.90;;;;;;5136990;27;20206;-74
2022/06/25 01:30:00;;;;;;;5.37;2.67;;;-40.00;99.90;;;;;;5137209;27;20173;-76
2022/06/25 01:32:25;;;;;;;5.73;2.53;;;-40.00;99.90;;;;;;5137947;27;20177;-74
2022/06/25 01:34:51;;;;;;;5.70;2.50;;;-40.00;99.90;;;;;;5138096;27;20169;-76
2022/06/25 01:37:17;;;;;;;6.83;3.03;;;-40.00;99.90;;;;;;5136739;27;20493;-68
2022/06/25 01:39:43;;;;;;;14.40;4.03;;;-40.00;99.90;;;;;;5138001;27;20193;-74
2022/06/25 01:42:58;;;;;;;2.97;2.73;;;-40.00;99.90;;;;;;5137935;27;20169;-74
2022/06/25 01:44:57;;;;;;;6.27;2.97;;;-40.00;99.90;;;;;;5137886;27;20185;-75
2022/06/25 01:47:23;;;;;;;3.67;3.47;;;-40.00;99.90;;;;;;5137746;27;20436;-73
2022/06/25 01:49:49;;;;;;;11.83;2.93;;;-40.00;99.90;;;;;;5138129;27;20565;-77
2022/06/25 01:52:15;;;;;;;5.57;3.23;;;-40.00;99.90;;;;;;5137457;27;20273;-73
2022/06/25 01:54:40;;;;;;;2.57;2.37;;;-40.00;99.90;;;;;;5137758;27;20168;-72
2022/06/25 01:57:06;;;;;;;8.23;2.70;;;-40.00;99.90;;;;;;5137732;27;20197;-73
2022/06/25 01:59:32;;;;;;;2.53;2.27;;;-40.00;99.90;;;;;;5136504;27;20174;-68
2022/06/25 02:01:57;;;;;;;7.60;3.40;;;-40.00;99.90;;;;;;5137558;27;20169;-74
2022/06/25 02:04:23;;;;;;;4.07;3.13;;;-40.00;99.90;;;;;;5137317;27;20169;-71
2022/06/25 02:06:50;;;;;;;2.63;2.23;;;-40.00;99.90;;;;;;5137237;27;20246;-77
2022/06/25 02:09:16;;;;;;;5.00;2.43;;;-40.00;99.90;;;;;;5136205;27;20550;-74
2022/06/25 02:11:41;;;;;;;4.07;2.70;;;-40.00;99.90;;;;;;5137379;27;20185;-71
2022/06/25 02:14:07;;;;;;;5.60;2.87;;;-40.00;99.90;;;;;;5137404;27;20172;-70
2022/06/25 02:16:33;;;;;;;10.93;3.10;;;-40.00;99.90;;;;;;5137326;27;20529;-71
2022/06/25 02:18:59;;;;;;;12.20;2.80;;;-40.00;99.90;;;;;;5137253;27;20530;-74
2022/06/25 02:21:25;;;;;;;2.70;2.57;;;-40.00;99.90;;;;;;5135994;27;20260;-70
2022/06/25 02:23:50;;;;;;;3.03;2.73;;;-40.00;99.90;;;;;;5136865;27;20499;-78
2022/06/25 02:26:16;;;;;;;3.27;2.57;;;-40.00;99.90;;;;;;5136041;27;20186;-72
2022/06/25 02:28:42;;;;;;;3.00;2.80;;;-40.00;99.90;;;;;;5135963;27;20165;-71
2022/06/25 02:31:07;;;;;;;5.47;2.50;;;-40.00;99.90;;;;;;5137185;27;20245;-73
2022/06/25 02:33:33;;;;;;;4.00;2.43;;;-40.00;99.90;;;;;;5137054;27;20477;-72
2022/06/25 02:35:59;;;;;;;6.27;2.90;;;-40.00;99.90;;;;;;5135762;27;20173;-71
2022/06/25 02:38:24;;;;;;;6.13;2.90;;;-40.00;99.90;;;;;;5136854;27;20190;-70
2022/06/25 02:40:51;;;;;;;4.00;2.40;;;-40.00;99.90;;;;;;5137125;27;20214;-72
2022/06/25 02:43:17;;;;;;;2.93;2.77;;;-40.00;99.90;;;;;;5136929;27;20530;-69
2022/06/25 02:45:43;;;;;;;6.27;2.30;;;-40.00;99.90;;;;;;5137019;27;20185;-71
2022/06/25 02:48:10;;;;;;;6.10;2.83;;;-40.00;99.90;;;;;;5135941;27;20165;-71
2022/06/25 02:50:36;;;;;;;2.53;2.33;;;-40.00;99.90;;;;;;5136693;27;20482;-71
2022/06/25 02:53:02;;;;;;;10.90;3.00;;;-40.00;99.90;;;;;;5136880;27;20188;-74
2022/06/25 03:00:57;;;;;;;14.40;2.67;;;-40.00;99.90;;;;;;5136836;27;20249;-70
2022/06/25 03:03:23;;;;;;;4.97;3.50;;;-40.00;99.90;;;;;;5135603;27;20602;-72
2022/06/25 03:05:49;;;;;;;3.00;2.80;;;-40.00;99.90;;;;;;5136055;27;20199;-73
2022/06/25 03:08:14;;;;;;;3.27;2.80;;;-40.00;99.90;;;;;;5136601;27;20246;-75
2022/06/25 03:10:40;;;;;;;2.73;2.53;;;-40.00;99.90;;;;;;5135340;27;20569;-70
2022/06/25 03:13:06;;;;;;;3.10;2.90;;;-40.00;99.90;;;;;;5136519;27;20573;-73
2022/06/25 03:15:32;;;;;;;3.77;2.43;;;-40.00;99.90;;;;;;5136279;27;20576;-71
2022/06/25 03:17:58;;;;;;;8.40;3.33;;;-40.00;99.90;;;;;;5136471;27;20169;-72
2022/06/25 03:20:23;;;;;;;2.63;2.33;;;-40.00;99.90;;;;;;5136042;27;20572;-70
2022/06/25 03:22:49;;;;;;;4.70;2.30;;;-40.00;99.90;;;;;;5136507;27;20158;-69
2022/06/25 03:25:15;;;;;;;3.03;2.43;;;-40.00;99.90;;;;;;5136247;27;20473;-68
2022/06/25 03:27:41;;;;;;;6.57;3.57;;;-40.00;99.90;;;;;;5135142;28;20592;-71
2022/06/25 03:30:07;;;;;;;4.40;2.20;;;-40.00;99.90;;;;;;5136349;27;20589;-69
2022/06/25 03:32:32;;;;;;;4.47;2.93;;;-40.00;99.90;;;;;;5136156;27;20214;-71
2022/06/25 03:34:58;;;;;;;4.27;2.60;;;-40.00;99.90;;;;;;5135834;27;20739;-73
2022/06/25 03:37:24;;;;;;;3.33;3.07;;;-40.00;99.90;;;;;;5139590;27;20212;-73
2022/06/25 03:39:49;;;;;;;2.97;2.67;;;-40.00;99.90;;;;;;5139269;27;20222;-72
2022/06/25 03:42:15;;;;;;;3.97;2.50;;;-40.00;99.90;;;;;;5140563;27;20218;-76
2022/06/25 03:44:41;;;;;;;6.50;2.70;;;-40.00;99.90;;;;;;5139051;27;20166;-71
2022/06/25 03:47:07;;;;;;;3.60;2.10;;;-40.00;99.90;;;;;;5140310;27;20193;-69
2022/06/25 03:49:33;;;;;;;2.53;2.30;;;-40.00;99.90;;;;;;5139797;27;20238;-67
2022/06/25 03:51:58;;;;;;;8.17;2.30;;;-40.00;99.90;;;;;;5140197;27;20193;-67
2022/06/25 03:54:24;;;;;;;4.07;2.73;;;-40.00;99.90;;;;;;5139094;27;20169;-70
2022/06/25 03:56:50;;;;;;;7.37;2.33;;;-40.00;99.90;;;;;;5140105;27;20252;-69
2022/06/25 03:59:16;;;;;;;3.60;2.70;;;-40.00;99.90;;;;;;5140331;27;20256;-68
2022/06/25 04:01:42;;;;;;;3.60;3.30;;;-40.00;99.90;;;;;;5139954;27;20198;-71
2022/06/25 04:04:08;;;;;;;5.90;2.37;;;-40.00;99.90;;;;;;5139785;27;20162;-68
2022/06/25 04:06:34;;;;;;;3.43;3.07;;;-40.00;99.90;;;;;;5140244;27;20477;-69
2022/06/25 04:09:00;;;;;;;6.23;2.60;;;-40.00;99.90;;;;;;5139890;27;20252;-77
2022/06/25 04:11:26;;;;;;;5.87;2.50;;;-40.00;99.90;;;;;;5138640;27;20184;-71
2022/06/25 04:13:51;;;;;;;3.03;2.50;;;-40.00;99.90;;;;;;5139954;27;20162;-71
2022/06/25 04:16:17;;;;;;;6.20;2.57;;;-40.00;99.90;;;;;;5139602;27;20240;-74
2022/06/25 04:18:43;;;;;;;11.57;3.57;;;-40.00;99.90;;;;;;5139544;27;20626;-76
2022/06/25 04:21:09;;;;;;;2.73;2.17;;;-40.00;99.90;;;;;;5139629;27;20169;-74
2022/06/25 04:23:35;;;;;;;4.83;2.37;;;-40.00;99.90;;;;;;5139699;27;20532;-76
2022/06/25 04:26:00;;;;;;;3.83;2.43;;;-40.00;99.90;;;;;;5139602;27;20603;-77
2022/06/25 04:31:10;;;;;;;3.97;2.10;;;-40.00;99.90;;;;;;5139427;27;20226;-76
2022/06/25 04:33:36;;;;;;;2.10;1.87;;;-40.00;99.90;;;;;;5139546;27;20165;-78
2022/06/25 04:36:02;;;;;;;1.87;1.70;;;-40.00;99.90;;;;;;5139552;27;20472;-75
2022/06/25 04:38:28;;;;;;;4.73;2.17;;;-40.00;99.90;;;;;;5138036;27;20284;-78
2022/06/25 04:40:54;;;;;;;2.70;2.50;;;-40.00;99.90;;;;;;5139356;27;20759;-77
2022/06/25 04:43:21;;;;;;;15.27;3.73;;;-40.00;99.90;;;;;;5139391;27;20541;-77
2022/06/25 04:45:46;;;;;;;5.43;3.20;;;-40.00;99.90;;;;;;5138789;27;20205;-78
2022/06/25 04:48:12;;;;;;;3.77;2.60;;;-40.00;99.90;;;;;;5138826;27;20611;-76
2022/06/25 04:50:38;;;;;;;7.90;2.70;;;-40.00;99.90;;;;;;5139175;27;20475;-78
2022/06/25 04:53:04;;;;;;;4.60;2.70;;;-40.00;99.90;;;;;;5139022;27;20165;-73
2022/06/25 04:55:30;;;;;;;5.23;2.37;;;-40.00;99.90;;;;;;5139059;27;20305;-78
2022/06/25 04:57:55;;;;;;;6.07;2.60;;;-40.00;99.90;;;;;;5138801;27;20170;-70
2022/06/25 05:00:21;;;;;;;6.43;2.30;;;-40.00;99.90;;;;;;5138693;27;20173;-76
2022/06/25 05:02:47;;;;;;;3.90;2.77;;;-40.00;99.90;;;;;;5137588;27;20173;-76
2022/06/25 05:05:12;;;;;;;2.07;1.97;;;-40.00;99.90;;;;;;5138605;27;20212;-76
2022/06/25 05:07:38;;;;;;;2.33;2.03;;;-40.00;99.90;;;;;;5138591;27;20165;-76
2022/06/25 05:10:04;;;;;;;3.77;2.23;;;-40.00;99.90;;;;;;5138761;27;20244;-74
2022/06/25 05:15:14;;;;;;;6.27;3.13;;;-40.00;99.90;;;;;;5157182;27;20491;-71
2022/06/25 05:17:40;;;;;;;10.03;2.30;;;-40.00;99.90;;;;;;5158767;27;20169;-76
2022/06/25 05:20:07;;;;;;;3.70;2.20;;;-40.00;99.90;;;;;;5158039;27;20211;-76
2022/06/25 05:22:32;;;;;;;17.13;2.90;;;-40.00;99.90;;;;;;5159134;27;20161;-74
2022/06/25 05:24:58;;;;;;;3.53;2.23;;;-40.00;99.90;;;;;;5159240;27;20237;-74
2022/06/25 05:27:24;;;;;;;3.03;2.63;;;-40.00;99.90;;;;;;5158912;27;20189;-77
2022/06/25 05:29:49;;;;;;;2.57;1.90;;;-40.00;99.90;;;;;;5158780;27;20509;-76
2022/06/25 05:32:15;;;;;;;5.67;2.30;;;-40.00;99.90;;;;;;5158986;27;20239;-77
2022/06/25 05:34:41;;;;;;;7.37;4.00;;;-40.00;99.90;;;;;;5157825;27;20196;-76
2022/06/25 05:37:07;;;;;;;2.20;2.10;;;-40.00;99.90;;;;;;5158818;27;20217;-76
2022/06/25 05:39:33;;;;;;;3.37;2.53;;;-40.00;99.90;;;;;;5158800;27;20165;-74
2022/06/25 05:41:58;;;;;;;3.10;2.40;;;-40.00;99.90;;;;;;5158869;27;20164;-75
2022/06/25 05:44:24;;;;;;;4.27;2.20;;;-40.00;99.90;;;;;;5158605;27;20305;-76
2022/06/25 05:46:50;;;;;;;6.23;2.30;;;-40.00;99.90;;;;;;5157617;27;20248;-74
2022/06/25 05:49:16;;;;;;;8.97;3.87;;;-40.00;99.90;;;;;;5157548;27;20212;-76
2022/06/25 05:51:41;;;;;;;2.00;1.80;;;-40.00;99.90;;;;;;5157491;27;20185;-75
2022/06/25 05:54:07;;;;;;;1.87;1.77;;;-40.00;99.90;;;;;;5158632;27;20522;-74
2022/06/25 05:56:33;;;;;;;2.37;1.67;;;-40.00;99.90;;;;;;5158557;27;20629;-69
2022/06/25 05:58:59;;;;;;;6.13;1.87;;;-40.00;99.90;;;;;;5157289;27;20220;-76
2022/06/25 06:01:24;;;;;;;2.27;2.07;;;-40.00;99.90;;;;;;5158388;27;20169;-76
2022/06/25 06:03:50;;;;;;;2.90;1.50;;;-40.00;99.90;;;;;;5158398;27;20169;-70
2022/06/25 06:06:16;;;;;;;5.60;2.03;;;-40.00;99.90;;;;;;5141568;27;20200;-68
2022/06/25 06:08:41;;;;;;;4.93;2.47;;;-40.00;99.90;;;;;;5137715;27;20162;-77
2022/06/25 06:11:09;;;;;;;4.50;1.80;;;-40.00;99.90;;;;;;5149600;27;20170;-74
2022/06/25 06:13:35;;;;;;;4.50;1.83;;;-40.00;99.90;;;;;;5135728;27;20244;-76
2022/06/25 06:16:01;;;;;;;5.60;1.70;;;-40.00;99.90;;;;;;5137368;27;20256;-73
2022/06/25 06:18:27;;;;;;;2.90;1.53;;;-40.00;99.90;;;;;;5137102;27;20162;-76
2022/06/25 06:20:52;;;;;;;6.80;2.30;;;-40.00;99.90;;;;;;5135917;27;20644;-70
2022/06/25 06:23:21;;;;;;;2.47;1.53;;;-40.00;99.90;;;;;;5136282;27;20372;-71
2022/06/25 06:25:47;;;;;;;3.13;1.90;;;-40.00;99.90;;;;;;5136987;27;20186;-71
2022/06/25 06:28:13;;;;;;;4.93;1.93;;;-40.00;99.90;;;;;;5136702;27;20165;-70
2022/06/25 06:30:39;;;;;;;3.03;1.70;;;-40.00;99.90;;;;;;5137032;27;20248;-70
2022/06/25 06:33:05;;;;;;;1.90;1.70;;;-40.00;99.90;;;;;;5136003;27;20165;-71
2022/06/25 06:35:31;;;;;;;3.77;1.83;;;-40.00;99.90;;;;;;5136856;27;20189;-72
2022/06/25 06:37:57;;;;;;;3.00;1.77;;;-40.00;99.90;;;;;;5136564;27;20238;-72
2022/06/25 06:40:23;;;;;;;3.40;1.50;;;-40.00;99.90;;;;;;5136556;27;20165;-68
2022/06/25 06:42:48;;;;;;;3.60;1.80;;;-40.00;99.90;;;;;;5136602;27;20169;-68
2022/06/25 06:45:14;;;;;;;2.37;1.87;;;-40.00;99.90;;;;;;5135624;27;20180;-70
2022/06/25 06:47:40;;;;;;;2.43;1.90;;;-40.00;99.90;;;;;;5136554;27;20240;-67
2022/06/25 06:50:06;;;;;;;2.80;1.70;;;-40.00;99.90;;;;;;5135999;27;20569;-70
2022/06/25 06:52:32;;;;;;;3.03;2.73;;;-40.00;99.90;;;;;;5135517;27;20232;-68
2022/06/25 06:54:59;;;;;;;6.53;2.07;;;-40.00;99.90;;;;;;5134836;27;20210;-67
2022/06/25 06:57:25;;;;;;;2.07;1.97;;;-40.00;99.90;;;;;;5134637;27;20197;-69
2022/06/25 06:59:51;;;;;;;8.13;1.77;;;-40.00;99.90;;;;;;5136540;27;20200;-72
2022/06/25 07:02:17;;;;;;;5.67;1.93;;;-40.00;99.90;;;;;;5136430;27;20161;-71
2022/06/25 07:04:42;;;;;;;3.83;1.63;;;-40.00;99.90;;;;;;5135097;27;20170;-71
2022/06/25 07:07:08;;;;;;;4.73;1.67;;;-40.00;99.90;;;;;;5136569;27;20200;-70
2022/06/25 07:09:34;;;;;;;5.90;2.47;;;-40.00;99.90;;;;;;5135528;27;20177;-70
2022/06/25 07:12:00;;;;;;;3.77;2.13;;;-40.00;99.90;;;;;;5135662;27;20176;-72
2022/06/25 07:14:26;;;;;;;4.17;2.03;;;-40.00;99.90;;;;;;5135466;27;20165;-71
2022/06/25 07:16:52;;;;;;;4.27;2.37;;;-40.00;99.90;;;;;;5134921;27;20169;-70
2022/06/25 07:19:18;;;;;;;7.80;3.13;;;-40.00;99.90;;;;;;5134881;27;20173;-69
2022/06/25 07:21:43;;;;;;;3.00;2.13;;;-40.00;99.90;;;;;;5134605;27;20169;-69
2022/06/25 07:24:09;;;;;;;3.63;1.93;;;-40.00;99.90;;;;;;5134996;27;20174;-69
2022/06/25 07:26:35;;;;;;;4.10;2.20;;;-40.00;99.90;;;;;;5135954;27;20192;-72
2022/06/25 07:29:01;;;;;;;3.30;2.40;;;-40.00;99.90;;;;;;5135813;27;20549;-70
2022/06/25 07:31:28;;;;;;;2.70;1.57;;;-40.00;99.90;;;;;;5136078;27;20475;-70
2022/06/25 07:33:54;;;;;;;3.07;2.10;;;-40.00;99.90;;;;;;5136492;27;20158;-72
2022/06/25 07:36:20;;;;;;;3.43;1.30;;;-40.00;99.90;;;;;;5137232;27;20265;-73
2022/06/25 07:38:46;;;;;;;6.10;1.80;;;-40.00;99.90;;;;;;5136054;27;20189;-78
2022/06/25 07:41:12;;;;;;;4.87;1.90;;;-40.00;99.90;;;;;;5134859;27;20169;-76
2022/06/25 07:43:38;;;;;;;5.93;1.80;;;-40.00;99.90;;;;;;5136367;27;20168;-78
2022/06/25 07:46:04;;;;;;;1.30;1.30;;;-40.00;99.90;;;;;;5136216;27;20228;-76
2022/06/25 07:48:30;;;;;;;3.33;1.70;;;-40.00;99.90;;;;;;5135211;27;20676;-71
2022/06/25 07:53:40;;;;;;;3.50;1.40;;;-40.00;99.90;;;;;;5136200;28;20245;-75
2022/06/25 07:56:06;;;;;;;2.30;1.57;;;-40.00;99.90;;;;;;5135813;27;20551;-78
2022/06/25 07:58:32;;;;;;;3.27;1.40;;;-40.00;99.90;;;;;;5136161;27;20181;-76
2022/06/25 08:00:58;;;;;;;2.10;1.90;;;-40.00;99.90;;;;;;5135606;27;20234;-77
2022/06/25 08:03:24;;;;;;;8.10;2.50;;;-40.00;99.90;;;;;;5136169;27;20573;-78
2022/06/25 08:05:50;;;;;;;4.43;2.50;;;-40.00;99.90;;;;;;5134590;27;20209;-73
2022/06/25 08:08:15;;;;;;;2.50;1.60;;;-40.00;99.90;;;;;;5135990;27;20166;-71
2022/06/25 08:10:41;;;;;;;5.00;1.60;;;-40.00;99.90;;;;;;5135755;27;20585;-76
2022/06/25 08:13:08;;;;;;;3.90;1.90;;;-40.00;99.90;;;;;;5134685;27;20564;-70
2022/06/25 08:15:33;;;;;;;3.27;2.00;;;-40.00;99.90;;;;;;5135923;27;20573;-77
2022/06/25 08:17:59;;;;;;;3.70;2.27;;;-40.00;99.90;;;;;;5135761;27;20253;-75
2022/06/25 08:20:25;;;;;;;4.53;2.17;;;-40.00;99.90;;;;;;5135988;27;20240;-74
2022/06/25 08:22:51;;;;;;;1.63;1.53;;;-40.00;99.90;;;;;;5136851;27;20170;-77
2022/06/25 08:25:17;;;;;;;2.47;1.87;;;-40.00;99.90;;;;;;5139132;27;20576;-78
2022/06/25 08:27:50;;;;;;;2.50;2.23;;;-40.00;99.90;;;;;;5139780;27;20166;-70
2022/06/25 08:30:20;;;;;;;4.17;1.87;;;-40.00;99.90;;;;;;5138978;27;20178;-70
2022/06/25 08:32:46;;;;;;;2.40;1.63;;;-40.00;99.50;;;;;;5139899;27;20262;-69
2022/06/25 08:35:12;;;;;;;1.97;1.77;;;-40.00;99.40;;;;;;5138173;27;20200;-69
2022/06/25 08:37:43;;;;;;;3.93;2.10;;;-40.00;99.00;;;;;;5139097;27;20189;-70
2022/06/25 08:40:09;;;;;;;2.60;1.53;;;-40.00;98.00;;;;;;5138567;27;20260;-71
2022/06/25 08:42:36;;;;;;;3.20;1.87;;;-40.00;96.90;;;;;;5139182;27;20210;-71
2022/06/25 08:45:02;;;;;;;1.87;1.57;;;-40.00;97.10;;;;;;5138268;27;20277;-68
2022/06/25 08:47:28;;;;;;;3.77;1.73;;;-40.00;96.30;;;;;;5139369;27;20197;-72
2022/06/25 08:49:54;;;;;;;2.53;1.40;;;-40.00;97.70;;;;;;5137951;27;20645;-69
2022/06/25 08:52:21;;;;;;;1.70;1.60;;;-40.00;98.70;;;;;;5139533;27;20597;-72
2022/06/25 08:54:48;;;;;;;2.10;1.60;;;-40.00;97.30;;;;;;5138548;27;20161;-70
2022/06/25 08:57:15;;;;;;;3.50;1.87;;;-40.00;98.40;;;;;;5130746;27;20177;-70
2022/06/25 08:59:42;;;;;;;3.87;1.63;;;-40.00;97.60;;;;;;5136378;27;20177;-70
2022/06/25 09:02:08;;;;;;;5.70;2.70;;;-40.00;97.60;;;;;;5137275;27;20173;-69
2022/06/25 09:04:33;;;;;;;4.03;1.90;;;-40.00;98.00;;;;;;5137772;27;20218;-70
2022/06/25 09:07:13;;;;;;;2.83;2.27;;;-40.00;98.00;;;;;;5137020;27;20703;-69
2022/06/25 09:09:39;;;;;;;4.47;2.40;;;-40.00;97.10;;;;;;5134061;27;20180;-68
2022/06/25 09:12:08;;;;;;;3.97;1.63;;;-40.00;96.80;;;;;;5137822;27;20189;-76
2022/06/25 09:14:36;;;;;;;2.20;1.57;;;-40.00;96.90;;;;;;5137236;27;20188;-73
2022/06/25 09:17:06;;;;;;;6.63;2.10;;;-40.00;96.60;;;;;;5137148;27;20565;-75
2022/06/25 09:19:39;;;;;;;3.13;1.63;;;-40.00;97.20;;;;;;5137359;27;20181;-71
2022/06/25 09:22:24;;;;;;;4.57;2.73;;;-40.00;96.70;;;;;;5136907;27;20385;-69
2022/06/25 09:24:58;;;;;;;4.83;2.27;;;-40.00;95.60;;;;;;5136670;27;20581;-82
2022/06/25 09:27:39;;;;;;;3.17;1.53;;;-40.00;95.70;;;;;;5137308;27;20188;-70
2022/06/25 09:30:13;;;;;;;2.50;2.30;;;-40.00;96.60;;;;;;5137193;27;20177;-69
2022/06/25 09:33:02;;;;;;;3.73;1.87;;;-40.00;99.10;;;;;;5136414;27;20247;-68
2022/06/25 09:35:37;;;;;;;6.30;2.33;;;-40.00;98.80;;;;;;5135118;27;20177;-79
2022/06/25 09:38:14;;;;;;;3.70;3.00;;;-40.00;99.90;;;;;;5136765;27;20189;-76
2022/06/25 09:40:48;;;;;;;3.70;2.17;;;-40.00;99.90;;;;;;5137564;27;20195;-71
2022/06/25 09:43:17;;;;;;;4.83;1.53;;;-40.00;99.90;;;;;;5135473;27;20633;-77
2022/06/25 09:45:47;;;;;;;1.87;1.50;;;-40.00;99.90;;;;;;5137307;27;20199;-72
2022/06/25 09:48:21;;;;;;;2.30;2.10;;;-40.00;99.50;;;;;;5135522;27;20476;-74
2022/06/25 09:51:19;;;;;;;8.93;2.50;;;-40.00;99.10;;;;;;5136723;27;20277;-76
2022/06/25 09:53:48;;;;;;;4.17;1.80;;;-40.00;98.50;;;;;;5135002;27;20181;-68
2022/06/25 09:56:33;;;;;;;2.50;2.10;;;-40.00;98.30;;;;;;5136678;27;20176;-81
2022/06/25 09:59:00;;;;;;;3.13;1.80;;;-40.00;97.90;;;;;;5135051;27;20484;-70
2022/06/25 10:01:31;;;;;;;5.40;1.90;;;-40.00;98.90;;;;;;5136349;27;20189;-79
2022/06/25 10:04:01;;;;;;;2.43;2.33;;;-40.00;96.30;;;;;;5137269;27;20252;-69
2022/06/25 10:06:34;;;;;;;1.97;1.70;;;-40.00;97.90;;;;;;5136023;27;20625;-77
2022/06/25 10:09:04;;;;;;;1.87;1.77;;;-40.00;97.90;;;;;;5135691;27;20628;-69
2022/06/25 10:11:34;;;;;;;12.23;3.43;;;-40.00;94.80;;;;;;5116942;28;20163;-69
2022/06/25 10:14:00;;;;;;;1.60;1.50;;;-40.00;96.70;;;;;;5116489;28;20158;-71
2022/06/25 10:16:28;;;;;;;1.57;1.40;;;-40.00;94.30;;;;;;5124469;27;20201;-71
2022/06/25 10:18:55;;;;;;;3.47;2.63;;;-40.00;94.10;;;;;;5137187;27;20173;-70
2022/06/25 10:21:23;;;;;;;3.33;1.53;;;-40.00;94.00;;;;;;5136281;27;20169;-67
2022/06/25 10:23:59;;;;;;;1.47;1.37;;;-40.00;90.70;;;;;;5139422;27;20187;-67
2022/06/25 10:26:26;;;;;;;4.30;1.27;;;-40.00;91.30;;;;;;5138928;27;20495;-68
2022/06/25 10:28:51;;;;;;;2.83;1.40;;;-40.00;91.20;;;;;;5137516;27;20240;-68
2022/06/25 10:31:18;;;;;;;1.13;1.13;;;-40.00;90.60;;;;;;5136978;27;20236;-72
2022/06/25 10:34:00;;;;;;;1.70;1.60;;;-40.00;88.30;;;;;;5136304;27;20252;-67
2022/06/25 10:36:42;;;;;;;3.53;1.40;;;-40.00;86.70;;;;;;5136312;27;20177;-70
2022/06/25 10:39:26;;;;;;;3.53;2.13;;;-40.00;94.30;;;;;;5136639;27;20201;-68
2022/06/25 10:45:15;;;;;;;4.47;2.80;;;-40.00;97.70;;;;;;5136568;27;20260;-74
2022/06/25 10:47:47;;;;;;;3.53;2.10;;;-40.00;98.50;;;;;;5119832;27;20508;-69
2022/06/25 10:50:22;;;;;;;1.77;1.67;;;-40.00;98.70;;;;;;5136632;27;20208;-70
2022/06/25 10:53:06;;;;;;;3.70;2.07;;;-40.00;98.70;;;;;;5137337;27;20177;-68
2022/06/25 10:55:59;;;;;;;2.37;1.70;;;-40.00;98.90;;;;;;5117510;28;20467;-69
2022/06/25 10:58:28;;;;;;;3.10;2.80;;;-40.00;97.30;;;;;;5119561;27;20166;-70
2022/06/25 11:01:01;;;;;;;2.43;1.50;;;-40.00;97.40;;;;;;5115904;28;20169;-77
2022/06/25 11:03:27;;;;;;;1.90;1.33;;;-40.00;97.90;;;;;;5115251;28;20173;-73
2022/06/25 11:05:54;;;;;;;5.73;1.90;;;-40.00;96.30;;;;;;5116013;28;20491;-71
2022/06/25 11:08:22;;;;;;;1.73;1.63;;;-40.00;95.70;;;;;;5115894;28;20174;-75
2022/06/25 11:10:49;;;;;;;2.47;1.20;;;-40.00;95.00;;;;;;5116108;28;20202;-73
2022/06/25 11:13:15;;;;;;;1.30;1.20;;;-40.00;95.30;;;;;;5116341;28;20214;-75
2022/06/25 11:15:43;;;;;;;1.70;1.33;;;-40.00;95.40;;;;;;5116047;28;20177;-67
2022/06/25 11:18:12;;;;;;;1.63;1.53;;;-40.00;95.50;;;;;;5114411;28;20170;-66
2022/06/25 11:20:39;;;;;;;2.83;2.00;;;-40.00;96.30;;;;;;5115773;28;20169;-67
2022/06/25 11:23:09;;;;;;;4.67;1.60;;;-40.00;94.90;;;;;;5115165;28;20441;-67
2022/06/25 11:28:51;;;;;;;2.50;1.23;;;-40.00;93.80;;;;;;5135629;28;20221;-72
2022/06/25 11:31:22;;;;;;;2.63;1.40;;;-40.00;93.60;;;;;;5133749;28;20180;-68
2022/06/25 11:33:49;;;;;;;2.40;1.13;;;-40.00;93.80;;;;;;5132428;28;20248;-71
2022/06/25 11:36:15;;;;;;;6.97;1.33;;;-40.00;91.50;;;;;;5136802;27;20450;-82
2022/06/25 11:38:50;;;;;;;3.27;1.10;;;-40.00;90.20;;;;;;5135895;27;20228;-78
2022/06/25 11:41:26;;;;;;;1.60;1.50;;;-40.00;86.70;;;;;;5135242;27;20176;-79
2022/06/25 11:43:52;;;;;;;2.10;1.90;;;-40.00;88.10;;;;;;5128779;27;20764;-80
2022/06/25 11:46:19;;;;;;;1.83;1.73;;;-40.00;83.00;;;;;;5122133;28;20190;-87
2022/06/25 11:48:50;;;;;;;2.90;1.83;;;-40.00;80.30;;;;;;5116041;28;20170;-77
2022/06/25 11:51:26;;;;;;;4.00;1.77;;;-40.00;78.70;;;;;;5123688;28;20627;-77
2022/06/25 11:53:52;;;;;;;1.43;1.10;;;-40.00;76.40;;;;;;5134676;27;20226;-83
2022/06/25 11:56:18;;;;;;;2.03;1.77;;;-40.00;72.90;;;;;;5134649;27;20476;-85
2022/06/25 11:58:45;;;;;;;1.33;1.27;;;-40.00;75.10;;;;;;5139983;27;20175;-79
2022/06/25 12:01:11;;;;;;;1.30;1.20;;;-40.00;73.50;;;;;;5137165;27;20463;-85
2022/06/25 12:03:37;;;;;;;1.53;1.43;;;-40.00;75.20;;;;;;5137467;27;20226;-85
2022/06/25 12:06:04;;;;;;;2.70;1.77;;;-40.00;73.10;;;;;;5137653;27;20213;-78
2022/06/25 12:08:31;;;;;;;1.50;1.40;;;-40.00;71.80;;;;;;5139056;27;20176;-83
2022/06/25 12:10:59;;;;;;;1.87;1.37;;;-40.00;70.40;;;;;;5136539;27;20173;-80
2022/06/25 12:13:30;;;;;;;2.33;1.23;;;-40.00;75.10;;;;;;5138594;27;20170;-73
2022/06/25 12:16:03;;;;;;;1.70;1.00;;;-40.00;71.60;;;;;;5138657;27;20169;-78
2022/06/25 12:18:39;;;;;;;1.00;0.90;;;-40.00;70.30;;;;;;5137961;27;20188;-76
2022/06/25 12:21:06;;;;;;;3.93;1.43;;;-40.00;71.20;;;;;;5138676;27;20255;-82
2022/06/25 12:23:52;;;;;;;244.13;34.90;;;-40.00;70.40;;;;;;5138518;27;20531;-75
2022/06/25 12:26:28;;;;;;;1.73;1.63;;;-40.00;73.60;;;;;;5128729;27;20261;-76
2022/06/25 12:29:08;;;;;;;1.07;1.03;;;-40.00;70.90;;;;;;5137316;27;20185;-77
2022/06/25 12:31:35;;;;;;;1.73;1.20;;;-40.00;69.90;;;;;;5128502;27;20285;-73
2022/06/25 12:34:02;;;;;;;7.00;3.53;;;-40.00;70.00;;;;;;5137439;27;20184;-77
2022/06/25 12:36:28;;;;;;;3.87;3.17;;;-40.00;72.30;;;;;;5137081;27;20218;-79
2022/06/25 12:38:54;;;;;;;3.23;1.90;;;-40.00;72.00;;;;;;5139298;27;20189;-79
2022/06/25 12:41:20;;;;;;;3.47;2.07;;;-40.00;73.00;;;;;;5137838;27;20185;-75
2022/06/25 12:43:48;;;;;;;3.10;1.80;;;-40.00;74.60;;;;;;5139035;27;20173;-81
2022/06/25 12:46:19;;;;;;;4.70;1.97;;;-40.00;76.20;;;;;;5137468;27;20207;-78
2022/06/25 12:48:45;;;;;;;4.33;1.70;;;-40.00;78.20;;;;;;5139202;27;20168;-74
2022/06/25 12:51:13;;;;;;;3.17;1.40;;;-40.00;78.70;;;;;;5135910;27;20198;-78
2022/06/25 12:53:41;;;;;;;2.90;2.70;;;-40.00;77.50;;;;;;5118381;28;20446;-78
2022/06/25 12:56:08;;;;;;;1.80;1.70;;;-40.00;78.40;;;;;;5118609;28;20222;-72
2022/06/25 12:58:38;;;;;;;2.50;2.30;;;-40.00;81.00;;;;;;5131031;27;20479;-79
2022/06/25 13:01:21;;;;;;;3.40;1.27;;;-40.00;81.50;;;;;;5144235;27;20230;-75